»·PEaware :: N5219J KEUG-KOTH

N5219J :: KEUG-KOTH

FLIGHT INFORMATION

Flight Status: Arrived
Operator: Privately registered:
United States
More flights under this callsign
Pilot: Jone M. (10385)
Aircraft: CESSNA 172 SKYHAWK
(C172)
More flights by this aircraft type
Origin: KEUG Mahlon Sweet
United States
Destination: KOTH North Bend Mun
United States
More flights between these airports :: More routes between these airports
Route: 440021N1232258W 433207N1240045W
File this flight plan on PilotEdge
Remarks:
Altitude:
(Current/Filed)
4,500ft
Speed:
(Current/Filed)
140kts
Departed: 15-Oct-18 11:14 AM
Arrived: 15-Oct-18 11:51 AM
Distance/Time
Traveled:
62nm/0:36
Distance/Time
To Go:
Arrived

Flight Plot

Page will automatically refresh every two minutes.

Flight plan parsing failed; only flown route is shown


Map Options




Map Legend


Flown Route
Filed Route
Departure Airport
Arrival Airport
Navaid (VOR, NDB)
Fix

Horizontal Profiles

Position Reports

Time Latitude Longitude Heading Altitude Ground
Speed
15-Oct-18 10:59 44.116686 -123.215864 42 377ft 0kts
15-Oct-18 11:00 44.116686 -123.215864 42 377ft 0kts
15-Oct-18 11:01 44.116686 -123.215864 42 377ft 0kts
15-Oct-18 11:02 44.116686 -123.215864 42 377ft 0kts
15-Oct-18 11:03 44.116688 -123.215860 41 377ft 0kts
15-Oct-18 11:04 44.116696 -123.215850 40 377ft 0kts
15-Oct-18 11:05 44.116696 -123.215850 40 377ft 0kts
15-Oct-18 11:06 44.116696 -123.215850 40 377ft 0kts
15-Oct-18 11:07 44.116870 -123.215992 306 377ft 3kts
15-Oct-18 11:08 44.115582 -123.216411 241 377ft 2kts
15-Oct-18 11:09 44.118908 -123.216980 359 377ft 17kts
15-Oct-18 11:10 44.123348 -123.217041 359 377ft 13kts
15-Oct-18 11:11 44.128503 -123.217123 0 377ft 19kts
15-Oct-18 11:12 44.132889 -123.217204 357 377ft 17kts
15-Oct-18 11:14 44.135360 -123.217384 334 377ft 2kts
15-Oct-18 11:14 44.135301 -123.217902 277 377ft 0kts
15-Oct-18 11:15 44.135326 -123.218453 274 377ft 13kts
15-Oct-18 11:16 44.129523 -123.219019 181 414ft 84kts
15-Oct-18 11:17 44.106518 -123.222562 217 1322ft 84kts
15-Oct-18 11:18 44.088822 -123.243834 234 2057ft 85kts
15-Oct-18 11:19 44.074680 -123.270540 236 2727ft 86kts
15-Oct-18 11:20 44.058367 -123.295604 235 3355ft 88kts
15-Oct-18 11:21 44.048996 -123.327424 245 3914ft 90kts
15-Oct-18 11:22 44.028442 -123.348374 221 4443ft 94kts
15-Oct-18 11:23 44.010816 -123.368411 224 4514ft 104kts
15-Oct-18 11:24 43.985272 -123.400906 224 4511ft 108kts
15-Oct-18 11:25 43.963469 -123.429567 226 4511ft 108kts
15-Oct-18 11:26 43.946127 -123.454377 229 4511ft 108kts
15-Oct-18 11:27 43.922477 -123.490263 229 4511ft 108kts
15-Oct-18 11:28 43.902232 -123.521072 230 4511ft 108kts
15-Oct-18 11:29 43.885345 -123.546847 230 4510ft 109kts
15-Oct-18 11:30 43.861536 -123.582659 228 4512ft 112kts
15-Oct-18 11:31 43.842633 -123.609979 228 4511ft 123kts
15-Oct-18 11:32 43.818251 -123.644843 224 4495ft 128kts
15-Oct-18 11:33 43.793022 -123.679814 223 4481ft 128kts
15-Oct-18 11:34 43.768424 -123.715169 224 4468ft 126kts
15-Oct-18 11:35 43.744455 -123.750258 224 4456ft 125kts
15-Oct-18 11:36 43.720760 -123.785212 224 4445ft 124kts
15-Oct-18 11:37 43.697286 -123.819956 224 4434ft 123kts
15-Oct-18 11:38 43.673845 -123.854734 224 4428ft 123kts
15-Oct-18 11:39 43.650514 -123.889446 224 4428ft 123kts
15-Oct-18 11:40 43.625700 -123.921429 219 4428ft 123kts
15-Oct-18 11:41 43.599029 -123.949948 214 4428ft 122kts
15-Oct-18 11:42 43.567444 -123.983237 214 4428ft 122kts
15-Oct-18 11:43 43.544934 -124.007027 215 4428ft 122kts
15-Oct-18 11:44 43.518247 -124.035963 211 4425ft 120kts
15-Oct-18 11:45 43.495349 -124.068452 238 4419ft 126kts
15-Oct-18 11:46 43.478012 -124.110354 237 3760ft 122kts
15-Oct-18 11:47 43.460989 -124.149716 236 2711ft 120kts
15-Oct-18 11:48 43.444132 -124.188289 242 1603ft 110kts
15-Oct-18 11:49 43.429763 -124.224173 239 810ft 111kts
15-Oct-18 11:50 43.414897 -124.259858 237 426ft 99kts
15-Oct-18 11:51 43.427676 -124.279967 0 1280ft 95kts
15-Oct-18 11:52 43.430485 -124.254755 136 495ft 71kts
15-Oct-18 11:53 43.417067 -124.244048 149 20ft 26kts
15-Oct-18 11:54 43.415168 -124.245053 242 20ft 4kts
15-Oct-18 11:55 43.414900 -124.245130 57 20ft 0kts
15-Oct-18 11:56 43.414900 -124.245130 57 20ft 0kts
15-Oct-18 11:57 43.414900 -124.245130 57 20ft 0kts
15-Oct-18 11:58 43.414900 -124.245130 57 20ft 0kts
15-Oct-18 11:59 43.414900 -124.245130 57 20ft 0kts

Navigation Log

Ident Type
Flight plan parsing failed, navigation log unavailable